sensor_id;sensor_type;location;lat;lon;timestamp;P1;durP1;ratioP1;P2;durP2;ratioP2
63965;SDS011;50151;52.030;5.350;2022-07-29T00:02:24;2.00;;;0.80;;
63965;SDS011;50151;52.030;5.350;2022-07-29T00:04:54;4.70;;;1.33;;
63965;SDS011;50151;52.030;5.350;2022-07-29T00:07:21;6.28;;;1.42;;
63965;SDS011;50151;52.030;5.350;2022-07-29T00:09:48;2.88;;;1.00;;
63965;SDS011;50151;52.030;5.350;2022-07-29T00:12:18;2.17;;;0.82;;
63965;SDS011;50151;52.030;5.350;2022-07-29T00:17:19;5.95;;;0.90;;
63965;SDS011;50151;52.030;5.350;2022-07-29T00:19:45;3.58;;;1.08;;
63965;SDS011;50151;52.030;5.350;2022-07-29T00:22:12;2.70;;;0.98;;
63965;SDS011;50151;52.030;5.350;2022-07-29T00:24:39;2.50;;;1.00;;
63965;SDS011;50151;52.030;5.350;2022-07-29T00:27:06;2.92;;;1.27;;
63965;SDS011;50151;52.030;5.350;2022-07-29T00:29:32;5.22;;;0.90;;
63965;SDS011;50151;52.030;5.350;2022-07-29T00:32:00;5.60;;;1.20;;
63965;SDS011;50151;52.030;5.350;2022-07-29T00:34:28;4.20;;;1.05;;
63965;SDS011;50151;52.030;5.350;2022-07-29T00:37:13;4.22;;;0.95;;
63965;SDS011;50151;52.030;5.350;2022-07-29T00:39:40;4.40;;;1.10;;
63965;SDS011;50151;52.030;5.350;2022-07-29T00:42:06;1.50;;;0.93;;
63965;SDS011;50151;52.030;5.350;2022-07-29T00:44:37;4.65;;;1.13;;
63965;SDS011;50151;52.030;5.350;2022-07-29T07:42:44;8.10;;;2.65;;
63965;SDS011;50151;52.030;5.350;2022-07-29T07:45:11;10.70;;;2.15;;
63965;SDS011;50151;52.030;5.350;2022-07-29T07:47:42;6.93;;;2.00;;
63965;SDS011;50151;52.030;5.350;2022-07-29T07:50:10;5.95;;;2.10;;
63965;SDS011;50151;52.030;5.350;2022-07-29T07:52:47;7.35;;;2.10;;
63965;SDS011;50151;52.030;5.350;2022-07-29T07:55:18;6.25;;;2.10;;
63965;SDS011;50151;52.030;5.350;2022-07-29T07:57:46;3.67;;;2.03;;
63965;SDS011;50151;52.030;5.350;2022-07-29T08:00:13;8.70;;;2.38;;
63965;SDS011;50151;52.030;5.350;2022-07-29T08:02:41;6.35;;;2.20;;
63965;SDS011;50151;52.030;5.350;2022-07-29T08:05:09;4.72;;;2.10;;
63965;SDS011;50151;52.030;5.350;2022-07-29T08:07:38;7.80;;;2.20;;
63965;SDS011;50151;52.030;5.350;2022-07-29T08:10:05;8.45;;;2.13;;
63965;SDS011;50151;52.030;5.350;2022-07-29T08:12:33;11.73;;;2.00;;
63965;SDS011;50151;52.030;5.350;2022-07-29T08:14:59;5.75;;;1.88;;
63965;SDS011;50151;52.030;5.350;2022-07-29T08:17:26;6.13;;;1.98;;
63965;SDS011;50151;52.030;5.350;2022-07-29T08:19:54;7.95;;;1.98;;
63965;SDS011;50151;52.030;5.350;2022-07-29T08:22:21;7.63;;;2.13;;
63965;SDS011;50151;52.030;5.350;2022-07-29T08:24:47;8.48;;;2.30;;
63965;SDS011;50151;52.030;5.350;2022-07-29T08:27:22;7.65;;;1.80;;
63965;SDS011;50151;52.030;5.350;2022-07-29T08:30:08;10.43;;;2.33;;
63965;SDS011;50151;52.030;5.350;2022-07-29T08:32:36;5.10;;;1.70;;
63965;SDS011;50151;52.030;5.350;2022-07-29T08:35:21;9.93;;;2.08;;
63965;SDS011;50151;52.030;5.350;2022-07-29T08:37:49;3.80;;;1.67;;
63965;SDS011;50151;52.030;5.350;2022-07-29T08:40:16;4.55;;;1.88;;
63965;SDS011;50151;52.030;5.350;2022-07-29T08:42:43;7.90;;;1.92;;
63965;SDS011;50151;52.030;5.350;2022-07-29T08:45:11;5.97;;;1.60;;
63965;SDS011;50151;52.030;5.350;2022-07-29T08:47:39;5.97;;;1.55;;
63965;SDS011;50151;52.030;5.350;2022-07-29T08:50:06;2.88;;;1.50;;
63965;SDS011;50151;52.030;5.350;2022-07-29T08:52:38;2.95;;;1.42;;
63965;SDS011;50151;52.030;5.350;2022-07-29T08:55:07;7.22;;;1.77;;
63965;SDS011;50151;52.030;5.350;2022-07-29T08:57:35;6.63;;;1.65;;
63965;SDS011;50151;52.030;5.350;2022-07-29T09:00:16;4.30;;;1.67;;
63965;SDS011;50151;52.030;5.350;2022-07-29T09:02:45;4.40;;;1.60;;
63965;SDS011;50151;52.030;5.350;2022-07-29T09:05:18;4.70;;;1.50;;
63965;SDS011;50151;52.030;5.350;2022-07-29T09:07:45;4.60;;;1.50;;
63965;SDS011;50151;52.030;5.350;2022-07-29T09:10:14;5.68;;;1.67;;
63965;SDS011;50151;52.030;5.350;2022-07-29T09:12:41;6.35;;;1.75;;
63965;SDS011;50151;52.030;5.350;2022-07-29T09:15:08;3.25;;;1.67;;
63965;SDS011;50151;52.030;5.350;2022-07-29T09:17:44;4.13;;;1.60;;
63965;SDS011;50151;52.030;5.350;2022-07-29T09:20:14;3.83;;;1.70;;
63965;SDS011;50151;52.030;5.350;2022-07-29T09:22:42;6.70;;;1.50;;
63965;SDS011;50151;52.030;5.350;2022-07-29T09:25:11;6.95;;;1.38;;
63965;SDS011;50151;52.030;5.350;2022-07-29T09:27:38;5.95;;;1.73;;
63965;SDS011;50151;52.030;5.350;2022-07-29T09:30:06;4.88;;;1.65;;
63965;SDS011;50151;52.030;5.350;2022-07-29T09:35:27;9.70;;;1.58;;
63965;SDS011;50151;52.030;5.350;2022-07-29T09:37:55;4.93;;;1.52;;
63965;SDS011;50151;52.030;5.350;2022-07-29T09:40:24;5.13;;;1.55;;
63965;SDS011;50151;52.030;5.350;2022-07-29T09:42:52;4.80;;;1.50;;
63965;SDS011;50151;52.030;5.350;2022-07-29T09:45:27;7.88;;;1.77;;
63965;SDS011;50151;52.030;5.350;2022-07-29T09:47:58;5.38;;;1.27;;
63965;SDS011;50151;52.030;5.350;2022-07-29T09:50:39;5.28;;;1.65;;
63965;SDS011;50151;52.030;5.350;2022-07-29T09:53:06;8.00;;;1.50;;
63965;SDS011;50151;52.030;5.350;2022-07-29T09:58:18;5.22;;;1.27;;
63965;SDS011;50151;52.030;5.350;2022-07-29T10:00:47;7.97;;;1.63;;
63965;SDS011;50151;52.030;5.350;2022-07-29T10:03:16;6.00;;;1.50;;
63965;SDS011;50151;52.030;5.350;2022-07-29T10:05:44;2.33;;;1.38;;
63965;SDS011;50151;52.030;5.350;2022-07-29T10:08:12;6.72;;;1.40;;
63965;SDS011;50151;52.030;5.350;2022-07-29T10:10:40;3.33;;;1.27;;
63965;SDS011;50151;52.030;5.350;2022-07-29T10:13:09;3.80;;;1.30;;
63965;SDS011;50151;52.030;5.350;2022-07-29T10:15:42;7.10;;;1.35;;
63965;SDS011;50151;52.030;5.350;2022-07-29T10:18:12;3.00;;;1.30;;
63965;SDS011;50151;52.030;5.350;2022-07-29T10:20:40;4.35;;;1.38;;
63965;SDS011;50151;52.030;5.350;2022-07-29T10:23:08;2.72;;;1.00;;
63965;SDS011;50151;52.030;5.350;2022-07-29T10:25:35;9.15;;;1.27;;
63965;SDS011;50151;52.030;5.350;2022-07-29T10:28:02;4.20;;;1.50;;
63965;SDS011;50151;52.030;5.350;2022-07-29T10:30:29;4.25;;;1.40;;
63965;SDS011;50151;52.030;5.350;2022-07-29T10:36:20;7.95;;;1.33;;
63965;SDS011;50151;52.030;5.350;2022-07-29T10:41:50;4.32;;;1.17;;
63965;SDS011;50151;52.030;5.350;2022-07-29T10:44:25;6.80;;;1.33;;
63965;SDS011;50151;52.030;5.350;2022-07-29T10:46:53;3.15;;;1.40;;
63965;SDS011;50151;52.030;5.350;2022-07-29T10:49:25;4.05;;;1.40;;
63965;SDS011;50151;52.030;5.350;2022-07-29T10:51:59;7.95;;;1.58;;
63965;SDS011;50151;52.030;5.350;2022-07-29T10:57:24;15.82;;;1.52;;
63965;SDS011;50151;52.030;5.350;2022-07-29T11:02:42;6.18;;;1.15;;
63965;SDS011;50151;52.030;5.350;2022-07-29T11:10:46;8.93;;;1.42;;
63965;SDS011;50151;52.030;5.350;2022-07-29T11:16:16;8.48;;;1.67;;
63965;SDS011;50151;52.030;5.350;2022-07-29T11:21:43;5.32;;;1.63;;
63965;SDS011;50151;52.030;5.350;2022-07-29T11:24:31;5.68;;;1.50;;
63965;SDS011;50151;52.030;5.350;2022-07-29T11:27:07;5.85;;;1.25;;
63965;SDS011;50151;52.030;5.350;2022-07-29T11:29:51;10.90;;;1.85;;
63965;SDS011;50151;52.030;5.350;2022-07-29T11:32:21;6.57;;;1.58;;
63965;SDS011;50151;52.030;5.350;2022-07-29T11:35:20;7.50;;;1.50;;
63965;SDS011;50151;52.030;5.350;2022-07-29T11:38:24;8.27;;;1.30;;
63965;SDS011;50151;52.030;5.350;2022-07-29T11:43:53;6.75;;;1.63;;
63965;SDS011;50151;52.030;5.350;2022-07-29T11:46:44;6.05;;;1.90;;
63965;SDS011;50151;52.030;5.350;2022-07-29T11:49:37;6.85;;;1.50;;
63965;SDS011;50151;52.030;5.350;2022-07-29T11:52:13;5.25;;;1.58;;
63965;SDS011;50151;52.030;5.350;2022-07-29T11:54:41;10.18;;;1.52;;
63965;SDS011;50151;52.030;5.350;2022-07-29T11:57:23;7.20;;;1.83;;
63965;SDS011;50151;52.030;5.350;2022-07-29T12:00:05;6.28;;;1.75;;
63965;SDS011;50151;52.030;5.350;2022-07-29T12:02:40;4.97;;;1.50;;
63965;SDS011;50151;52.030;5.350;2022-07-29T12:05:13;10.20;;;1.67;;
63965;SDS011;50151;52.030;5.350;2022-07-29T12:08:04;14.05;;;2.10;;
63965;SDS011;50151;52.030;5.350;2022-07-29T12:10:39;8.60;;;2.10;;
63965;SDS011;50151;52.030;5.350;2022-07-29T12:13:09;7.18;;;2.25;;
63965;SDS011;50151;52.030;5.350;2022-07-29T12:15:37;4.88;;;1.65;;
63965;SDS011;50151;52.030;5.350;2022-07-29T12:18:19;7.15;;;1.77;;
63965;SDS011;50151;52.030;5.350;2022-07-29T12:20:56;4.38;;;1.73;;
63965;SDS011;50151;52.030;5.350;2022-07-29T12:23:30;8.55;;;2.17;;
63965;SDS011;50151;52.030;5.350;2022-07-29T12:26:00;3.60;;;1.60;;
63965;SDS011;50151;52.030;5.350;2022-07-29T12:28:35;6.93;;;2.08;;
63965;SDS011;50151;52.030;5.350;2022-07-29T12:31:04;5.97;;;1.70;;
63965;SDS011;50151;52.030;5.350;2022-07-29T12:33:33;7.47;;;1.60;;
63965;SDS011;50151;52.030;5.350;2022-07-29T12:36:00;6.47;;;1.95;;
63965;SDS011;50151;52.030;5.350;2022-07-29T12:38:33;7.93;;;1.88;;
63965;SDS011;50151;52.030;5.350;2022-07-29T12:41:05;6.10;;;1.73;;
63965;SDS011;50151;52.030;5.350;2022-07-29T12:43:32;9.23;;;1.90;;
63965;SDS011;50151;52.030;5.350;2022-07-29T12:46:10;8.45;;;2.28;;
63965;SDS011;50151;52.030;5.350;2022-07-29T12:48:40;5.68;;;1.73;;
63965;SDS011;50151;52.030;5.350;2022-07-29T12:51:08;6.55;;;1.70;;
63965;SDS011;50151;52.030;5.350;2022-07-29T12:53:37;4.63;;;1.63;;
63965;SDS011;50151;52.030;5.350;2022-07-29T12:56:04;5.43;;;2.05;;
63965;SDS011;50151;52.030;5.350;2022-07-29T12:58:51;5.90;;;2.38;;
63965;SDS011;50151;52.030;5.350;2022-07-29T13:01:19;5.00;;;2.20;;
63965;SDS011;50151;52.030;5.350;2022-07-29T13:03:51;5.90;;;1.90;;
63965;SDS011;50151;52.030;5.350;2022-07-29T13:09:19;5.35;;;1.73;;
63965;SDS011;50151;52.030;5.350;2022-07-29T13:11:50;7.88;;;2.20;;
63965;SDS011;50151;52.030;5.350;2022-07-29T13:22:09;6.40;;;1.60;;
63965;SDS011;50151;52.030;5.350;2022-07-29T13:24:52;3.88;;;1.50;;
63965;SDS011;50151;52.030;5.350;2022-07-29T13:27:28;5.65;;;1.92;;
63965;SDS011;50151;52.030;5.350;2022-07-29T13:29:58;8.15;;;2.10;;
63965;SDS011;50151;52.030;5.350;2022-07-29T13:32:28;4.85;;;1.90;;
63965;SDS011;50151;52.030;5.350;2022-07-29T13:34:56;5.57;;;1.80;;
63965;SDS011;50151;52.030;5.350;2022-07-29T13:37:24;5.82;;;1.63;;
63965;SDS011;50151;52.030;5.350;2022-07-29T13:39:52;6.70;;;1.83;;
63965;SDS011;50151;52.030;5.350;2022-07-29T13:42:20;10.13;;;1.85;;
63965;SDS011;50151;52.030;5.350;2022-07-29T13:44:46;5.50;;;1.67;;
63965;SDS011;50151;52.030;5.350;2022-07-29T13:47:14;8.50;;;2.20;;
63965;SDS011;50151;52.030;5.350;2022-07-29T13:49:42;6.40;;;1.58;;
63965;SDS011;50151;52.030;5.350;2022-07-29T13:52:08;8.68;;;1.88;;
63965;SDS011;50151;52.030;5.350;2022-07-29T13:54:35;4.68;;;1.90;;
63965;SDS011;50151;52.030;5.350;2022-07-29T13:57:07;4.25;;;1.50;;
63965;SDS011;50151;52.030;5.350;2022-07-29T13:59:34;7.78;;;1.92;;
63965;SDS011;50151;52.030;5.350;2022-07-29T14:02:01;4.95;;;1.60;;
63965;SDS011;50151;52.030;5.350;2022-07-29T14:04:28;7.05;;;1.63;;
63965;SDS011;50151;52.030;5.350;2022-07-29T14:06:55;7.20;;;1.73;;
63965;SDS011;50151;52.030;5.350;2022-07-29T14:09:22;9.70;;;1.90;;
63965;SDS011;50151;52.030;5.350;2022-07-29T14:11:48;9.20;;;1.83;;
63965;SDS011;50151;52.030;5.350;2022-07-29T14:14:17;4.45;;;1.60;;
63965;SDS011;50151;52.030;5.350;2022-07-29T14:16:44;3.28;;;1.35;;
63965;SDS011;50151;52.030;5.350;2022-07-29T14:19:17;6.60;;;1.45;;
63965;SDS011;50151;52.030;5.350;2022-07-29T14:21:44;7.40;;;2.10;;
63965;SDS011;50151;52.030;5.350;2022-07-29T14:24:13;6.05;;;1.90;;
63965;SDS011;50151;52.030;5.350;2022-07-29T14:26:43;7.43;;;1.50;;
63965;SDS011;50151;52.030;5.350;2022-07-29T14:29:11;7.68;;;1.60;;
63965;SDS011;50151;52.030;5.350;2022-07-29T14:31:38;5.85;;;1.70;;
63965;SDS011;50151;52.030;5.350;2022-07-29T14:34:05;12.27;;;1.85;;
63965;SDS011;50151;52.030;5.350;2022-07-29T14:36:31;6.35;;;1.58;;
63965;SDS011;50151;52.030;5.350;2022-07-29T14:38:58;7.10;;;1.55;;
63965;SDS011;50151;52.030;5.350;2022-07-29T14:41:25;5.95;;;1.60;;
63965;SDS011;50151;52.030;5.350;2022-07-29T14:43:54;5.28;;;1.75;;
63965;SDS011;50151;52.030;5.350;2022-07-29T14:46:21;4.43;;;1.38;;
63965;SDS011;50151;52.030;5.350;2022-07-29T14:48:47;10.38;;;1.58;;
63965;SDS011;50151;52.030;5.350;2022-07-29T14:51:14;4.35;;;1.40;;
63965;SDS011;50151;52.030;5.350;2022-07-29T14:53:41;6.75;;;1.60;;
63965;SDS011;50151;52.030;5.350;2022-07-29T14:56:08;4.28;;;1.42;;
63965;SDS011;50151;52.030;5.350;2022-07-29T14:58:55;6.50;;;1.52;;
63965;SDS011;50151;52.030;5.350;2022-07-29T15:01:23;7.32;;;1.60;;
63965;SDS011;50151;52.030;5.350;2022-07-29T15:03:51;7.78;;;1.60;;
63965;SDS011;50151;52.030;5.350;2022-07-29T15:06:23;8.45;;;1.45;;
63965;SDS011;50151;52.030;5.350;2022-07-29T15:08:49;4.65;;;1.70;;
63965;SDS011;50151;52.030;5.350;2022-07-29T15:11:16;5.53;;;1.45;;
63965;SDS011;50151;52.030;5.350;2022-07-29T15:13:43;4.00;;;1.40;;
63965;SDS011;50151;52.030;5.350;2022-07-29T15:16:10;7.78;;;1.50;;
63965;SDS011;50151;52.030;5.350;2022-07-29T15:18:36;5.28;;;1.45;;
63965;SDS011;50151;52.030;5.350;2022-07-29T15:21:04;4.22;;;1.52;;
63965;SDS011;50151;52.030;5.350;2022-07-29T15:23:33;3.92;;;1.55;;
63965;SDS011;50151;52.030;5.350;2022-07-29T15:26:04;3.65;;;1.27;;
63965;SDS011;50151;52.030;5.350;2022-07-29T15:28:31;5.45;;;1.30;;
63965;SDS011;50151;52.030;5.350;2022-07-29T15:30:58;3.63;;;1.20;;
63965;SDS011;50151;52.030;5.350;2022-07-29T15:33:25;9.80;;;1.35;;
63965;SDS011;50151;52.030;5.350;2022-07-29T15:35:52;6.65;;;1.30;;
63965;SDS011;50151;52.030;5.350;2022-07-29T15:38:18;7.40;;;1.60;;
63965;SDS011;50151;52.030;5.350;2022-07-29T15:40:53;4.13;;;1.02;;
63965;SDS011;50151;52.030;5.350;2022-07-29T15:43:21;5.93;;;1.40;;
63965;SDS011;50151;52.030;5.350;2022-07-29T15:45:47;4.93;;;1.38;;
63965;SDS011;50151;52.030;5.350;2022-07-29T15:48:33;4.95;;;1.27;;
63965;SDS011;50151;52.030;5.350;2022-07-29T15:51:04;5.78;;;1.60;;
63965;SDS011;50151;52.030;5.350;2022-07-29T15:53:31;5.35;;;1.65;;
63965;SDS011;50151;52.030;5.350;2022-07-29T15:56:00;5.85;;;1.50;;
63965;SDS011;50151;52.030;5.350;2022-07-29T15:58:27;5.43;;;1.20;;
63965;SDS011;50151;52.030;5.350;2022-07-29T16:00:53;4.35;;;1.35;;
63965;SDS011;50151;52.030;5.350;2022-07-29T16:03:21;8.13;;;1.20;;
63965;SDS011;50151;52.030;5.350;2022-07-29T16:05:47;5.85;;;1.10;;
63965;SDS011;50151;52.030;5.350;2022-07-29T16:08:14;3.22;;;1.30;;
63965;SDS011;50151;52.030;5.350;2022-07-29T16:10:41;5.85;;;1.27;;
63965;SDS011;50151;52.030;5.350;2022-07-29T16:13:08;4.82;;;1.20;;
63965;SDS011;50151;52.030;5.350;2022-07-29T16:15:34;2.80;;;1.20;;
63965;SDS011;50151;52.030;5.350;2022-07-29T16:18:01;5.25;;;1.30;;
63965;SDS011;50151;52.030;5.350;2022-07-29T16:20:28;15.48;;;1.90;;
63965;SDS011;50151;52.030;5.350;2022-07-29T16:22:55;4.95;;;1.25;;
63965;SDS011;50151;52.030;5.350;2022-07-29T16:25:22;3.55;;;1.35;;
63965;SDS011;50151;52.030;5.350;2022-07-29T16:28:09;2.40;;;1.30;;
63965;SDS011;50151;52.030;5.350;2022-07-29T16:30:35;5.35;;;1.50;;
63965;SDS011;50151;52.030;5.350;2022-07-29T16:33:02;5.55;;;1.38;;
63965;SDS011;50151;52.030;5.350;2022-07-29T16:35:33;3.38;;;1.20;;
63965;SDS011;50151;52.030;5.350;2022-07-29T16:38:05;2.63;;;1.30;;
63965;SDS011;50151;52.030;5.350;2022-07-29T16:40:31;4.60;;;1.15;;
63965;SDS011;50151;52.030;5.350;2022-07-29T16:42:58;5.35;;;1.40;;
63965;SDS011;50151;52.030;5.350;2022-07-29T16:45:25;4.65;;;1.25;;
63965;SDS011;50151;52.030;5.350;2022-07-29T16:47:57;2.97;;;1.13;;
63965;SDS011;50151;52.030;5.350;2022-07-29T16:50:26;4.70;;;1.30;;
63965;SDS011;50151;52.030;5.350;2022-07-29T16:52:54;3.08;;;1.27;;
63965;SDS011;50151;52.030;5.350;2022-07-29T16:55:21;3.13;;;1.20;;
63965;SDS011;50151;52.030;5.350;2022-07-29T16:57:49;3.65;;;1.35;;
63965;SDS011;50151;52.030;5.350;2022-07-29T17:00:18;6.03;;;1.40;;
63965;SDS011;50151;52.030;5.350;2022-07-29T17:02:46;4.28;;;1.50;;
63965;SDS011;50151;52.030;5.350;2022-07-29T17:05:13;5.80;;;1.40;;
63965;SDS011;50151;52.030;5.350;2022-07-29T17:07:40;4.47;;;1.30;;
63965;SDS011;50151;52.030;5.350;2022-07-29T17:10:08;5.97;;;1.30;;
63965;SDS011;50151;52.030;5.350;2022-07-29T17:12:36;8.63;;;1.80;;
63965;SDS011;50151;52.030;5.350;2022-07-29T17:15:04;3.08;;;1.23;;
63965;SDS011;50151;52.030;5.350;2022-07-29T17:17:32;5.10;;;1.33;;
63965;SDS011;50151;52.030;5.350;2022-07-29T17:20:19;6.00;;;1.88;;
63965;SDS011;50151;52.030;5.350;2022-07-29T17:22:46;4.38;;;1.58;;
63965;SDS011;50151;52.030;5.350;2022-07-29T17:25:12;4.32;;;1.52;;
63965;SDS011;50151;52.030;5.350;2022-07-29T17:27:46;7.43;;;1.48;;
63965;SDS011;50151;52.030;5.350;2022-07-29T17:30:14;2.85;;;1.33;;
63965;SDS011;50151;52.030;5.350;2022-07-29T17:32:41;4.47;;;1.50;;
63965;SDS011;50151;52.030;5.350;2022-07-29T17:35:08;3.65;;;1.30;;
63965;SDS011;50151;52.030;5.350;2022-07-29T17:37:54;4.57;;;1.23;;
63965;SDS011;50151;52.030;5.350;2022-07-29T17:40:21;7.93;;;1.27;;
63965;SDS011;50151;52.030;5.350;2022-07-29T17:42:48;7.15;;;1.45;;
63965;SDS011;50151;52.030;5.350;2022-07-29T17:45:15;3.85;;;1.80;;
63965;SDS011;50151;52.030;5.350;2022-07-29T17:47:42;7.15;;;1.65;;
63965;SDS011;50151;52.030;5.350;2022-07-29T17:50:10;3.92;;;1.77;;
63965;SDS011;50151;52.030;5.350;2022-07-29T17:52:37;6.28;;;1.70;;
63965;SDS011;50151;52.030;5.350;2022-07-29T17:55:04;10.23;;;1.50;;
63965;SDS011;50151;52.030;5.350;2022-07-29T17:57:32;5.13;;;1.55;;
63965;SDS011;50151;52.030;5.350;2022-07-29T17:59:59;4.85;;;1.35;;
63965;SDS011;50151;52.030;5.350;2022-07-29T18:02:26;5.47;;;1.70;;
63965;SDS011;50151;52.030;5.350;2022-07-29T18:04:53;4.68;;;1.40;;
63965;SDS011;50151;52.030;5.350;2022-07-29T18:07:20;7.35;;;1.73;;
63965;SDS011;50151;52.030;5.350;2022-07-29T18:09:47;7.50;;;1.60;;
63965;SDS011;50151;52.030;5.350;2022-07-29T18:12:14;5.70;;;1.60;;
63965;SDS011;50151;52.030;5.350;2022-07-29T18:14:41;4.15;;;1.55;;
63965;SDS011;50151;52.030;5.350;2022-07-29T18:17:07;9.10;;;1.92;;
63965;SDS011;50151;52.030;5.350;2022-07-29T18:19:34;4.53;;;1.77;;
63965;SDS011;50151;52.030;5.350;2022-07-29T18:22:01;6.07;;;1.60;;
63965;SDS011;50151;52.030;5.350;2022-07-29T18:24:30;4.55;;;1.27;;
63965;SDS011;50151;52.030;5.350;2022-07-29T18:26:57;6.45;;;1.60;;
63965;SDS011;50151;52.030;5.350;2022-07-29T18:29:25;11.55;;;1.50;;
63965;SDS011;50151;52.030;5.350;2022-07-29T18:31:54;10.90;;;2.08;;
63965;SDS011;50151;52.030;5.350;2022-07-29T18:34:21;7.95;;;1.58;;
63965;SDS011;50151;52.030;5.350;2022-07-29T18:36:48;6.95;;;1.60;;
63965;SDS011;50151;52.030;5.350;2022-07-29T18:39:15;4.55;;;1.40;;
63965;SDS011;50151;52.030;5.350;2022-07-29T18:41:46;3.40;;;1.52;;
63965;SDS011;50151;52.030;5.350;2022-07-29T18:44:18;3.15;;;1.23;;
63965;SDS011;50151;52.030;5.350;2022-07-29T18:46:48;6.57;;;1.70;;
63965;SDS011;50151;52.030;5.350;2022-07-29T18:49:16;6.07;;;1.77;;
63965;SDS011;50151;52.030;5.350;2022-07-29T18:51:43;6.22;;;1.42;;
63965;SDS011;50151;52.030;5.350;2022-07-29T18:54:10;6.50;;;1.52;;
63965;SDS011;50151;52.030;5.350;2022-07-29T18:56:37;5.80;;;1.33;;
63965;SDS011;50151;52.030;5.350;2022-07-29T18:59:04;6.22;;;1.45;;
63965;SDS011;50151;52.030;5.350;2022-07-29T19:01:31;7.63;;;1.55;;
63965;SDS011;50151;52.030;5.350;2022-07-29T19:03:59;5.68;;;1.27;;
63965;SDS011;50151;52.030;5.350;2022-07-29T19:06:26;3.97;;;1.42;;
63965;SDS011;50151;52.030;5.350;2022-07-29T19:08:53;6.18;;;1.50;;
63965;SDS011;50151;52.030;5.350;2022-07-29T19:11:20;4.43;;;1.20;;
63965;SDS011;50151;52.030;5.350;2022-07-29T19:13:47;9.93;;;1.63;;
63965;SDS011;50151;52.030;5.350;2022-07-29T19:16:14;5.07;;;1.77;;
63965;SDS011;50151;52.030;5.350;2022-07-29T19:18:41;6.28;;;1.40;;
63965;SDS011;50151;52.030;5.350;2022-07-29T19:21:08;6.60;;;1.63;;
63965;SDS011;50151;52.030;5.350;2022-07-29T19:23:35;4.93;;;1.60;;
63965;SDS011;50151;52.030;5.350;2022-07-29T19:26:22;4.72;;;1.90;;
63965;SDS011;50151;52.030;5.350;2022-07-29T19:28:51;6.28;;;1.77;;
63965;SDS011;50151;52.030;5.350;2022-07-29T19:31:18;6.20;;;1.50;;
63965;SDS011;50151;52.030;5.350;2022-07-29T19:33:45;6.65;;;1.75;;
63965;SDS011;50151;52.030;5.350;2022-07-29T19:36:12;8.48;;;1.80;;
63965;SDS011;50151;52.030;5.350;2022-07-29T19:38:39;7.43;;;1.83;;
63965;SDS011;50151;52.030;5.350;2022-07-29T19:41:06;7.82;;;1.52;;
63965;SDS011;50151;52.030;5.350;2022-07-29T19:43:34;5.65;;;1.70;;
63965;SDS011;50151;52.030;5.350;2022-07-29T19:48:45;6.65;;;1.75;;
63965;SDS011;50151;52.030;5.350;2022-07-29T19:51:12;6.07;;;1.52;;
63965;SDS011;50151;52.030;5.350;2022-07-29T19:53:39;7.38;;;2.10;;
63965;SDS011;50151;52.030;5.350;2022-07-29T19:56:06;6.85;;;1.73;;
63965;SDS011;50151;52.030;5.350;2022-07-29T19:58:34;5.97;;;1.70;;
63965;SDS011;50151;52.030;5.350;2022-07-29T20:01:01;6.65;;;1.63;;
63965;SDS011;50151;52.030;5.350;2022-07-29T20:03:39;6.75;;;1.75;;
63965;SDS011;50151;52.030;5.350;2022-07-29T20:06:06;5.13;;;1.80;;
63965;SDS011;50151;52.030;5.350;2022-07-29T20:08:34;7.82;;;1.90;;
63965;SDS011;50151;52.030;5.350;2022-07-29T20:11:01;4.72;;;1.85;;
63965;SDS011;50151;52.030;5.350;2022-07-29T20:13:28;4.80;;;2.17;;
63965;SDS011;50151;52.030;5.350;2022-07-29T20:15:58;5.38;;;1.73;;
63965;SDS011;50151;52.030;5.350;2022-07-29T20:18:26;6.63;;;1.80;;
63965;SDS011;50151;52.030;5.350;2022-07-29T20:20:53;8.32;;;2.15;;
63965;SDS011;50151;52.030;5.350;2022-07-29T20:23:22;6.45;;;2.05;;
63965;SDS011;50151;52.030;5.350;2022-07-29T20:25:49;6.30;;;2.00;;
63965;SDS011;50151;52.030;5.350;2022-07-29T20:28:16;6.00;;;1.67;;
63965;SDS011;50151;52.030;5.350;2022-07-29T20:30:43;5.47;;;1.90;;
63965;SDS011;50151;52.030;5.350;2022-07-29T20:33:12;10.95;;;1.90;;
63965;SDS011;50151;52.030;5.350;2022-07-29T20:35:39;4.32;;;2.00;;
63965;SDS011;50151;52.030;5.350;2022-07-29T20:38:06;8.18;;;2.20;;
63965;SDS011;50151;52.030;5.350;2022-07-29T20:40:33;5.18;;;1.80;;
63965;SDS011;50151;52.030;5.350;2022-07-29T20:43:00;6.28;;;1.92;;
63965;SDS011;50151;52.030;5.350;2022-07-29T20:45:27;4.13;;;1.85;;
